Time;durP1;ratioP1;P1;durP2;ratioP2;P2;SDS_P1;SDS_P2;PMS_P1;PMS_P2;Temp;Humidity;BMP_temperature;BMP_pressure;BME280_temperature;BME280_humidity;BME280_pressure;Samples;Min_cycle;Max_cycle;Signal;HPM_P1;HPM_P2
2022/11/09 00:01:43;;;;;;;6.77;1.13;;;12.30;99.90;;;;;;5099978;28;20397;-72
2022/11/09 00:04:09;;;;;;;8.20;1.20;;;12.20;99.90;;;;;;5128639;27;20918;-72
2022/11/09 00:06:35;;;;;;;4.60;1.67;;;12.10;99.90;;;;;;5120715;27;20774;-73
2022/11/09 00:09:03;;;;;;;5.60;1.58;;;12.10;99.90;;;;;;5108397;28;20420;-73
2022/11/09 00:11:28;;;;;;;7.07;1.88;;;12.00;99.90;;;;;;5120505;27;21115;-73
2022/11/09 00:13:54;;;;;;;4.70;1.30;;;12.00;99.90;;;;;;5129978;27;20390;-73
2022/11/09 00:16:21;;;;;;;4.53;1.52;;;11.90;99.90;;;;;;5111004;27;20442;-73
2022/11/09 00:18:47;;;;;;;5.75;1.83;;;11.90;99.90;;;;;;5124986;27;20735;-73
2022/11/09 00:21:19;;;;;;;5.35;1.45;;;11.90;99.90;;;;;;5097264;28;20824;-73
2022/11/09 00:23:45;;;;;;;5.47;1.73;;;11.80;99.90;;;;;;5123071;27;20408;-72
2022/11/09 00:26:13;;;;;;;5.80;2.00;;;11.80;99.90;;;;;;5097308;27;20931;-73
2022/11/09 00:28:39;;;;;;;6.47;2.28;;;11.80;99.90;;;;;;5094272;28;20401;-73
2022/11/09 00:31:13;;;;;;;5.97;2.47;;;11.80;99.90;;;;;;5109359;28;20399;-73
2022/11/09 00:33:39;;;;;;;5.63;2.42;;;11.80;99.90;;;;;;5109981;27;20415;-73
2022/11/09 00:36:09;;;;;;;7.32;2.80;;;11.80;99.90;;;;;;5128503;27;20402;-73
2022/11/09 00:38:35;;;;;;;5.75;3.08;;;11.80;99.90;;;;;;5129389;27;20399;-73
2022/11/09 00:41:02;;;;;;;7.55;2.47;;;11.80;99.90;;;;;;5128233;27;20504;-73
2022/11/09 00:43:28;;;;;;;7.35;2.58;;;11.90;99.90;;;;;;5101672;28;20404;-73
2022/11/09 00:45:53;;;;;;;8.40;2.55;;;11.90;99.90;;;;;;5111119;27;20405;-73
2022/11/09 00:48:19;;;;;;;5.90;2.53;;;11.90;99.90;;;;;;5107389;28;20400;-73
2022/11/09 00:50:52;;;;;;;7.68;2.60;;;11.90;99.90;;;;;;5124103;27;20452;-73
2022/11/09 00:53:19;;;;;;;5.10;1.75;;;11.90;99.90;;;;;;5120737;27;20400;-73
2022/11/09 00:55:59;;;;;;;5.78;1.75;;;11.90;99.90;;;;;;5125181;27;20493;-73
2022/11/09 00:58:26;;;;;;;6.13;2.30;;;11.90;99.90;;;;;;5107375;28;20412;-73
2022/11/09 01:00:53;;;;;;;6.07;2.20;;;11.90;99.90;;;;;;5114665;27;20405;-73
2022/11/09 01:03:19;;;;;;;6.50;2.20;;;11.90;99.90;;;;;;5129220;27;20470;-73
2022/11/09 01:05:45;;;;;;;8.25;2.42;;;11.90;99.90;;;;;;5128737;27;20403;-73
2022/11/09 01:08:11;;;;;;;6.53;2.10;;;11.90;99.90;;;;;;5111957;27;20449;-73
2022/11/09 01:10:41;;;;;;;4.00;2.05;;;11.90;99.90;;;;;;5127394;27;20422;-73
2022/11/09 01:13:07;;;;;;;4.85;1.70;;;11.80;99.90;;;;;;5129251;27;20472;-73
2022/11/09 01:15:32;;;;;;;7.47;1.98;;;11.80;99.90;;;;;;5122716;28;20479;-73
2022/11/09 01:17:58;;;;;;;4.90;2.27;;;11.80;99.90;;;;;;5121678;28;20406;-73
2022/11/09 01:20:23;;;;;;;6.70;1.83;;;11.80;99.90;;;;;;5109645;28;20413;-73
2022/11/09 01:22:49;;;;;;;5.30;1.80;;;11.70;99.90;;;;;;5120507;28;20399;-73
2022/11/09 01:25:15;;;;;;;5.32;1.77;;;11.70;99.90;;;;;;5107276;28;20483;-73
2022/11/09 01:27:40;;;;;;;6.40;1.77;;;11.60;99.90;;;;;;5097811;28;20404;-76
2022/11/09 01:30:07;;;;;;;5.35;1.70;;;11.60;99.90;;;;;;5126602;28;20434;-75
2022/11/09 01:32:32;;;;;;;5.63;1.63;;;11.60;99.90;;;;;;5116988;28;20393;-76
2022/11/09 01:34:58;;;;;;;5.83;1.70;;;11.50;99.90;;;;;;5104315;28;20404;-76
2022/11/09 01:37:24;;;;;;;5.63;1.80;;;11.50;99.90;;;;;;5119153;28;20403;-75
2022/11/09 01:39:49;;;;;;;6.77;2.50;;;11.50;99.90;;;;;;5123150;28;20392;-76
2022/11/09 01:42:22;;;;;;;7.93;2.35;;;11.40;99.90;;;;;;5119238;28;20490;-75
2022/11/09 01:44:47;;;;;;;6.93;1.90;;;11.40;99.90;;;;;;5114352;28;20430;-75
2022/11/09 01:47:23;;;;;;;6.13;2.10;;;11.40;99.90;;;;;;5116404;28;20432;-76
2022/11/09 01:49:57;;;;;;;9.55;2.20;;;11.40;99.90;;;;;;5113925;28;20452;-75
2022/11/09 01:52:36;;;;;;;8.40;2.05;;;11.40;99.90;;;;;;5120630;28;20398;-75
2022/11/09 01:55:10;;;;;;;9.82;2.70;;;11.40;99.90;;;;;;5128678;28;20403;-76
2022/11/09 01:57:54;;;;;;;8.85;2.30;;;11.40;99.90;;;;;;5118865;28;20904;-75
2022/11/09 02:00:20;;;;;;;8.30;2.55;;;11.50;99.90;;;;;;5128629;28;20911;-75
2022/11/09 02:02:56;;;;;;;9.23;2.53;;;11.50;99.90;;;;;;5128374;28;20403;-75
2022/11/09 02:05:26;;;;;;;7.70;2.38;;;11.50;99.90;;;;;;5109644;28;20478;-75
2022/11/09 02:07:53;;;;;;;11.02;2.20;;;11.50;99.90;;;;;;5128769;28;20459;-76
2022/11/09 02:10:42;;;;;;;7.32;2.25;;;11.50;99.90;;;;;;5107764;28;20436;-76
2022/11/09 02:13:11;;;;;;;5.55;2.08;;;11.60;99.90;;;;;;5100272;28;20412;-75
2022/11/09 02:15:37;;;;;;;6.80;2.10;;;11.70;99.90;;;;;;5098535;28;20763;-76
2022/11/09 02:18:03;;;;;;;7.97;2.20;;;11.70;99.90;;;;;;5097653;28;20407;-75
2022/11/09 02:20:29;;;;;;;4.30;2.00;;;11.70;99.90;;;;;;5127021;27;20397;-76
2022/11/09 02:22:55;;;;;;;6.03;1.90;;;11.70;99.90;;;;;;5130445;27;20399;-75
2022/11/09 02:25:21;;;;;;;8.90;2.22;;;11.70;99.90;;;;;;5110288;28;20443;-76
2022/11/09 02:27:47;;;;;;;8.05;2.00;;;11.80;99.90;;;;;;5127809;27;20394;-75
2022/11/09 02:30:14;;;;;;;5.18;1.80;;;11.80;99.90;;;;;;5131921;27;20522;-76
2022/11/09 02:32:40;;;;;;;6.90;2.13;;;11.80;99.90;;;;;;5128239;27;20584;-75
2022/11/09 02:35:06;;;;;;;8.50;2.35;;;11.80;99.90;;;;;;5132035;27;20894;-75
2022/11/09 02:37:38;;;;;;;8.37;2.33;;;11.80;99.90;;;;;;5112009;27;20419;-75
2022/11/09 02:40:09;;;;;;;6.67;2.20;;;11.80;99.90;;;;;;5100869;28;20499;-76
2022/11/09 02:42:35;;;;;;;6.07;2.38;;;11.80;99.90;;;;;;5111734;27;20836;-75
2022/11/09 02:45:01;;;;;;;6.30;2.03;;;11.70;99.90;;;;;;5126680;27;20395;-76
2022/11/09 02:47:26;;;;;;;9.45;2.60;;;11.70;99.90;;;;;;5127896;27;20407;-76
2022/11/09 02:49:52;;;;;;;7.03;2.10;;;11.70;99.90;;;;;;5118875;27;20477;-76
2022/11/09 02:52:18;;;;;;;8.90;2.22;;;11.60;99.90;;;;;;5117358;27;20406;-76
2022/11/09 02:54:45;;;;;;;7.45;2.17;;;11.60;99.90;;;;;;5092918;28;20443;-76
2022/11/09 02:57:10;;;;;;;6.28;1.88;;;11.60;99.90;;;;;;5116780;27;20396;-75
2022/11/09 02:59:36;;;;;;;7.15;2.08;;;11.50;99.90;;;;;;5131588;27;20447;-75
2022/11/09 03:02:01;;;;;;;6.63;1.87;;;11.50;99.90;;;;;;5130675;27;20834;-76
2022/11/09 03:04:27;;;;;;;10.43;2.00;;;11.50;99.90;;;;;;5120412;27;20443;-76
2022/11/09 03:06:52;;;;;;;7.00;1.97;;;11.40;99.90;;;;;;5114981;27;20413;-75
2022/11/09 03:09:18;;;;;;;8.77;2.38;;;11.40;99.90;;;;;;5120907;27;20454;-75
2022/11/09 03:11:44;;;;;;;6.50;2.10;;;11.40;99.90;;;;;;5094614;28;20423;-75
2022/11/09 03:14:10;;;;;;;7.38;2.17;;;11.40;99.90;;;;;;5122424;27;20456;-75
2022/11/09 03:16:37;;;;;;;9.07;2.40;;;11.40;99.90;;;;;;5117455;27;20884;-75
2022/11/09 03:19:03;;;;;;;6.60;2.03;;;11.40;99.90;;;;;;5119537;27;20408;-75
2022/11/09 03:21:29;;;;;;;8.20;2.00;;;11.30;99.90;;;;;;5127513;27;20402;-76
2022/11/09 03:23:55;;;;;;;5.93;2.00;;;11.30;99.90;;;;;;5111059;28;20772;-76
2022/11/09 03:26:21;;;;;;;6.90;2.00;;;11.30;99.90;;;;;;5118300;27;20394;-75
2022/11/09 03:28:47;;;;;;;6.95;2.25;;;11.30;99.90;;;;;;5131120;27;20395;-76
2022/11/09 03:31:13;;;;;;;5.63;2.13;;;11.30;99.90;;;;;;5130603;27;20406;-75
2022/11/09 03:33:39;;;;;;;8.43;1.92;;;11.30;99.90;;;;;;5109448;27;20404;-75
2022/11/09 03:36:05;;;;;;;6.93;2.13;;;11.30;99.90;;;;;;5112655;27;20399;-76
2022/11/09 03:38:31;;;;;;;9.07;2.50;;;11.30;99.90;;;;;;5109493;27;20407;-75
2022/11/09 03:40:59;;;;;;;6.30;1.70;;;11.30;99.90;;;;;;5129963;27;20398;-76
2022/11/09 03:43:24;;;;;;;10.18;2.10;;;11.30;99.90;;;;;;5129454;27;20407;-76
2022/11/09 03:45:50;;;;;;;7.00;2.00;;;11.30;99.90;;;;;;5128831;27;20444;-76
2022/11/09 03:48:16;;;;;;;10.90;1.80;;;11.30;99.90;;;;;;5110467;27;20925;-75
2022/11/09 03:50:41;;;;;;;10.48;2.00;;;11.30;99.90;;;;;;5121050;27;20471;-75
2022/11/09 03:53:08;;;;;;;8.93;1.98;;;11.30;99.90;;;;;;5092038;28;21116;-76
2022/11/09 03:55:34;;;;;;;11.47;2.20;;;11.30;99.90;;;;;;5127650;27;20477;-76
2022/11/09 03:58:00;;;;;;;9.07;1.85;;;11.30;99.90;;;;;;5130546;27;20931;-75
2022/11/09 04:00:26;;;;;;;7.10;1.60;;;11.30;99.90;;;;;;5094891;28;20735;-75
2022/11/09 04:02:52;;;;;;;6.05;1.63;;;11.30;99.90;;;;;;5099641;28;20411;-75
2022/11/09 04:05:18;;;;;;;8.55;1.88;;;11.30;99.90;;;;;;5123538;27;20392;-76
2022/11/09 04:07:57;;;;;;;10.75;2.15;;;11.30;99.90;;;;;;5109896;27;20450;-76
2022/11/09 04:10:24;;;;;;;8.20;1.60;;;11.30;99.90;;;;;;5129451;27;20418;-75
2022/11/09 04:12:50;;;;;;;9.75;2.20;;;11.30;99.90;;;;;;5128510;27;20410;-76
2022/11/09 04:15:16;;;;;;;8.60;1.75;;;11.30;99.90;;;;;;5111187;27;20403;-76
2022/11/09 04:17:43;;;;;;;8.75;1.98;;;11.30;99.90;;;;;;5128791;27;20426;-75
2022/11/09 04:20:10;;;;;;;6.35;1.50;;;11.40;99.90;;;;;;5122936;27;20433;-76
2022/11/09 04:22:36;;;;;;;8.73;1.83;;;11.30;99.90;;;;;;5129603;27;20419;-76
2022/11/09 04:25:03;;;;;;;9.40;1.63;;;11.30;99.90;;;;;;5129815;27;20402;-75
2022/11/09 04:27:29;;;;;;;10.20;1.80;;;11.30;99.90;;;;;;5110792;27;20398;-75
2022/11/09 04:29:54;;;;;;;7.67;1.60;;;11.30;99.90;;;;;;5109441;27;20434;-76
2022/11/09 04:32:20;;;;;;;8.25;2.25;;;11.30;99.90;;;;;;5129223;27;20402;-75
2022/11/09 04:34:46;;;;;;;7.87;1.57;;;11.20;99.90;;;;;;5111138;27;20410;-75
2022/11/09 04:37:11;;;;;;;10.52;1.80;;;11.20;99.90;;;;;;5129366;27;20443;-76
2022/11/09 04:39:37;;;;;;;7.53;1.73;;;11.20;99.90;;;;;;5111474;27;20496;-76
2022/11/09 04:42:02;;;;;;;8.50;1.48;;;11.10;99.90;;;;;;5103871;27;20418;-76
2022/11/09 04:44:28;;;;;;;8.30;1.70;;;11.10;99.90;;;;;;5115507;27;20391;-76
2022/11/09 04:46:54;;;;;;;10.18;1.73;;;11.10;99.90;;;;;;5129301;27;20494;-75
2022/11/09 04:49:20;;;;;;;10.45;1.90;;;11.10;99.90;;;;;;5129168;27;21114;-75
2022/11/09 04:51:45;;;;;;;8.60;1.60;;;11.10;99.90;;;;;;5129283;27;20395;-76
2022/11/09 04:54:11;;;;;;;8.38;1.77;;;11.10;99.90;;;;;;5128226;27;20452;-75
2022/11/09 04:56:37;;;;;;;9.43;2.10;;;11.10;99.90;;;;;;5127403;27;20391;-75
2022/11/09 04:59:02;;;;;;;8.40;1.75;;;11.10;99.90;;;;;;5122357;27;21342;-76
2022/11/09 05:01:28;;;;;;;10.53;2.13;;;11.10;99.90;;;;;;5086476;27;20732;-75
2022/11/09 05:03:54;;;;;;;9.38;1.33;;;11.20;99.90;;;;;;5104575;28;20586;-76
2022/11/09 05:06:31;;;;;;;8.33;1.80;;;11.20;99.90;;;;;;5119496;27;20409;-75
2022/11/09 05:09:05;;;;;;;8.95;2.05;;;11.20;99.90;;;;;;5128908;27;20430;-75
2022/11/09 05:11:31;;;;;;;9.52;1.80;;;11.20;99.90;;;;;;5128697;27;20406;-76
2022/11/09 05:13:57;;;;;;;10.23;1.88;;;11.20;99.90;;;;;;5128729;27;20425;-75
2022/11/09 05:16:23;;;;;;;8.07;1.80;;;11.20;99.90;;;;;;5109890;28;20901;-76
2022/11/09 05:18:49;;;;;;;8.05;1.90;;;11.20;99.90;;;;;;5124619;27;20391;-75
2022/11/09 05:21:15;;;;;;;8.07;1.55;;;11.20;99.90;;;;;;5128062;27;20409;-75
2022/11/09 05:23:59;;;;;;;8.38;1.83;;;11.20;99.90;;;;;;5082511;28;20399;-75
2022/11/09 05:26:44;;;;;;;6.90;1.40;;;11.20;99.90;;;;;;5114563;28;20391;-75
2022/11/09 05:29:11;;;;;;;6.38;1.80;;;11.20;99.90;;;;;;5108438;28;20499;-75
2022/11/09 05:31:39;;;;;;;6.57;1.60;;;11.30;99.90;;;;;;5129147;28;20395;-75
2022/11/09 05:34:05;;;;;;;8.20;1.90;;;11.30;99.90;;;;;;5104484;28;20404;-75
2022/11/09 05:36:32;;;;;;;7.82;1.70;;;11.20;99.90;;;;;;5117337;28;20414;-75
2022/11/09 05:38:59;;;;;;;7.00;1.70;;;11.30;99.90;;;;;;5108654;28;20410;-75
2022/11/09 05:41:25;;;;;;;9.63;1.67;;;11.20;99.90;;;;;;5095400;28;20408;-76
2022/11/09 05:43:51;;;;;;;9.30;1.98;;;11.30;99.90;;;;;;5108538;28;20965;-75
2022/11/09 05:46:17;;;;;;;9.50;2.00;;;11.30;99.90;;;;;;5107211;28;20503;-75
2022/11/09 05:48:43;;;;;;;7.22;1.67;;;11.30;99.90;;;;;;5123438;28;20878;-75
2022/11/09 05:51:11;;;;;;;8.80;1.80;;;11.40;99.90;;;;;;5123048;28;21102;-73
2022/11/09 05:53:37;;;;;;;8.30;2.05;;;11.40;99.90;;;;;;5114483;28;20397;-75
2022/11/09 05:56:11;;;;;;;9.07;1.73;;;11.40;99.90;;;;;;5108493;28;20777;-75
2022/11/09 05:58:37;;;;;;;8.07;1.55;;;11.40;99.90;;;;;;5129000;27;20403;-75
2022/11/09 06:01:09;;;;;;;9.13;2.10;;;11.40;99.90;;;;;;5104981;28;20418;-75
2022/11/09 06:03:35;;;;;;;7.13;1.88;;;11.50;99.90;;;;;;5096693;28;20469;-75
2022/11/09 06:06:06;;;;;;;8.57;1.73;;;11.40;99.90;;;;;;5112836;27;20968;-75
2022/11/09 06:08:32;;;;;;;8.95;1.70;;;11.40;99.90;;;;;;5132127;27;20915;-75
2022/11/09 06:11:00;;;;;;;7.25;1.60;;;11.40;99.90;;;;;;5103222;28;20436;-75
2022/11/09 06:13:26;;;;;;;9.20;1.92;;;11.40;99.90;;;;;;5093975;28;20401;-75
2022/11/09 06:15:54;;;;;;;9.68;1.75;;;11.40;99.90;;;;;;5106406;28;20943;-74
2022/11/09 06:18:21;;;;;;;8.82;2.10;;;11.40;99.90;;;;;;5130499;27;20395;-75
2022/11/09 06:20:49;;;;;;;10.38;2.30;;;11.40;99.90;;;;;;5131962;27;20406;-75
2022/11/09 06:23:14;;;;;;;8.48;1.65;;;11.40;99.90;;;;;;5099594;28;20841;-75
2022/11/09 06:25:40;;;;;;;11.18;2.10;;;11.40;99.90;;;;;;5093938;28;20408;-75
2022/11/09 06:28:06;;;;;;;8.83;2.00;;;11.40;99.90;;;;;;5108646;28;20436;-75
2022/11/09 06:30:31;;;;;;;12.55;2.40;;;11.40;99.90;;;;;;5111825;27;20443;-73
2022/11/09 06:32:59;;;;;;;8.00;1.90;;;11.40;99.90;;;;;;5109803;28;20474;-73
2022/11/09 06:35:25;;;;;;;10.10;2.00;;;11.30;99.90;;;;;;5112167;28;20403;-73
2022/11/09 06:37:58;;;;;;;7.33;1.70;;;11.30;99.90;;;;;;5107283;28;20388;-74
2022/11/09 06:40:24;;;;;;;9.02;1.90;;;11.20;99.90;;;;;;5107018;28;20408;-74
2022/11/09 06:42:49;;;;;;;10.13;1.92;;;11.30;99.90;;;;;;5109163;28;20827;-75
2022/11/09 06:45:15;;;;;;;9.55;1.88;;;11.20;99.90;;;;;;5109436;28;20438;-74
2022/11/09 06:47:41;;;;;;;8.80;1.63;;;11.20;99.90;;;;;;5103571;27;20395;-75
2022/11/09 06:50:08;;;;;;;8.73;1.90;;;11.20;99.90;;;;;;5109789;28;20528;-75
2022/11/09 06:52:34;;;;;;;6.97;1.88;;;11.20;99.90;;;;;;5108570;28;20404;-73
2022/11/09 06:54:59;;;;;;;10.30;1.70;;;11.20;99.90;;;;;;5112428;27;20420;-75
2022/11/09 06:57:28;;;;;;;7.07;1.70;;;11.20;99.90;;;;;;5107451;27;20426;-74
2022/11/09 06:59:54;;;;;;;9.30;2.47;;;11.20;99.90;;;;;;5102851;27;21000;-75
2022/11/09 07:02:21;;;;;;;8.30;1.60;;;11.20;99.90;;;;;;5123257;27;20498;-74
2022/11/09 07:04:50;;;;;;;9.20;1.85;;;11.20;99.90;;;;;;5128146;27;20410;-74
2022/11/09 07:07:15;;;;;;;7.93;1.42;;;11.20;99.90;;;;;;5128717;27;20422;-74
2022/11/09 07:09:41;;;;;;;11.63;2.28;;;11.10;99.90;;;;;;5129725;27;20427;-74
2022/11/09 07:12:08;;;;;;;10.20;1.87;;;11.10;99.90;;;;;;5092708;27;20475;-74
2022/11/09 07:14:34;;;;;;;10.10;1.70;;;11.20;99.90;;;;;;5115921;27;20468;-74
2022/11/09 07:17:00;;;;;;;10.38;1.73;;;11.20;99.90;;;;;;5107172;28;20483;-74
2022/11/09 07:19:28;;;;;;;9.15;1.75;;;11.20;99.90;;;;;;5125004;27;20486;-74
2022/11/09 07:21:54;;;;;;;10.35;1.85;;;11.20;99.90;;;;;;5130334;27;20391;-75
2022/11/09 07:24:19;;;;;;;8.77;1.73;;;11.20;99.90;;;;;;5098460;28;20411;-74
2022/11/09 07:26:47;;;;;;;9.75;1.55;;;11.30;99.90;;;;;;5096590;28;20404;-74
2022/11/09 07:29:13;;;;;;;9.23;2.13;;;11.30;99.90;;;;;;5111706;27;20461;-74
2022/11/09 07:31:38;;;;;;;10.05;1.98;;;11.30;99.90;;;;;;5130371;27;20426;-74
2022/11/09 07:34:04;;;;;;;10.47;2.10;;;11.30;99.90;;;;;;5098360;27;20412;-74
2022/11/09 07:36:30;;;;;;;10.50;1.90;;;11.30;99.90;;;;;;5083308;27;20402;-74
2022/11/09 07:38:57;;;;;;;7.47;1.70;;;11.30;99.90;;;;;;5117173;27;20399;-74
2022/11/09 07:41:23;;;;;;;9.33;1.90;;;11.30;99.90;;;;;;5130302;27;21743;-74
2022/11/09 07:43:48;;;;;;;10.43;1.75;;;11.30;99.90;;;;;;5129056;27;20399;-74
2022/11/09 07:46:14;;;;;;;7.13;1.40;;;11.30;99.90;;;;;;5118831;27;20431;-74
2022/11/09 07:48:40;;;;;;;10.75;1.45;;;11.30;99.90;;;;;;5129457;27;20760;-73
2022/11/09 07:51:06;;;;;;;10.03;1.50;;;11.40;99.90;;;;;;5118660;27;20422;-74
2022/11/09 07:53:31;;;;;;;10.07;1.97;;;11.40;99.90;;;;;;5130554;27;20791;-74
2022/11/09 07:55:59;;;;;;;6.90;1.20;;;11.40;99.90;;;;;;5130412;27;20450;-74
2022/11/09 07:58:24;;;;;;;10.57;2.05;;;11.40;99.90;;;;;;5128494;27;20435;-74
2022/11/09 08:00:50;;;;;;;8.23;1.63;;;11.50;99.90;;;;;;5117787;27;20441;-74
2022/11/09 08:03:18;;;;;;;11.25;2.05;;;11.50;99.90;;;;;;5116197;27;20393;-74
2022/11/09 08:05:44;;;;;;;8.93;1.70;;;11.50;99.90;;;;;;5111756;27;20420;-74
2022/11/09 08:08:11;;;;;;;7.65;1.35;;;11.60;99.90;;;;;;5129908;27;20436;-74
2022/11/09 08:10:38;;;;;;;9.27;1.58;;;11.60;99.90;;;;;;5126521;27;20464;-74
2022/11/09 08:13:12;;;;;;;9.23;1.60;;;11.70;99.90;;;;;;5110433;27;20934;-75
2022/11/09 08:15:38;;;;;;;9.45;2.03;;;11.70;99.90;;;;;;5129540;27;20399;-74
2022/11/09 08:18:09;;;;;;;10.38;1.92;;;11.70;99.90;;;;;;5107132;28;20400;-74
2022/11/09 08:20:35;;;;;;;8.95;1.63;;;11.70;99.90;;;;;;5110004;27;20405;-74
2022/11/09 08:23:00;;;;;;;9.60;2.07;;;11.80;99.90;;;;;;5091020;27;20390;-74
2022/11/09 08:25:26;;;;;;;8.77;1.40;;;11.80;99.90;;;;;;5119742;27;20400;-74
2022/11/09 08:27:54;;;;;;;12.02;1.88;;;11.80;99.90;;;;;;5126110;27;20400;-74
2022/11/09 08:30:20;;;;;;;10.43;1.80;;;11.80;99.90;;;;;;5117697;27;20426;-74
2022/11/09 08:32:47;;;;;;;11.80;1.93;;;11.80;99.90;;;;;;5129053;27;20434;-74
2022/11/09 08:35:16;;;;;;;9.43;1.93;;;11.80;99.90;;;;;;5118031;27;20495;-74
2022/11/09 08:37:46;;;;;;;7.97;2.40;;;11.90;99.90;;;;;;5122665;27;20400;-74
2022/11/09 08:40:14;;;;;;;13.00;2.20;;;11.90;99.90;;;;;;5120547;27;20413;-74
2022/11/09 08:42:40;;;;;;;8.38;1.40;;;11.90;99.90;;;;;;5123673;27;20401;-74
2022/11/09 08:45:07;;;;;;;9.98;1.83;;;11.90;99.90;;;;;;5091062;28;20403;-74
2022/11/09 08:47:33;;;;;;;11.85;1.95;;;12.00;99.90;;;;;;5115636;27;20414;-74
2022/11/09 08:49:59;;;;;;;8.98;1.70;;;12.00;99.90;;;;;;5110125;27;20471;-73
2022/11/09 08:52:24;;;;;;;9.32;1.90;;;12.00;99.90;;;;;;5128384;27;20403;-74
2022/11/09 08:54:50;;;;;;;9.13;2.00;;;12.10;99.90;;;;;;5128422;27;20406;-74
2022/11/09 08:57:19;;;;;;;9.50;1.53;;;12.10;99.90;;;;;;5128269;27;20959;-74
2022/11/09 08:59:45;;;;;;;11.98;2.08;;;12.20;99.90;;;;;;5123919;27;20395;-74
2022/11/09 09:02:12;;;;;;;12.30;2.00;;;12.20;99.90;;;;;;5128998;27;20390;-74
2022/11/09 09:04:38;;;;;;;9.88;2.25;;;12.20;99.90;;;;;;5098217;28;20817;-75
2022/11/09 09:07:03;;;;;;;9.10;1.87;;;12.30;99.90;;;;;;5121484;27;20485;-74
2022/11/09 09:09:29;;;;;;;12.90;1.77;;;12.30;99.90;;;;;;5129417;27;20429;-74
2022/11/09 09:11:55;;;;;;;9.13;1.63;;;12.40;99.90;;;;;;5128454;27;20430;-74
2022/11/09 09:14:20;;;;;;;7.60;1.73;;;12.30;99.90;;;;;;5129275;27;20884;-74
2022/11/09 09:16:46;;;;;;;9.20;1.93;;;12.40;99.90;;;;;;5128849;27;20401;-74
2022/11/09 09:19:12;;;;;;;8.93;2.13;;;12.40;99.90;;;;;;5117839;28;20454;-74
2022/11/09 09:21:37;;;;;;;10.98;1.90;;;12.40;99.90;;;;;;5127657;27;20402;-74
2022/11/09 09:24:03;;;;;;;9.73;2.10;;;12.50;99.90;;;;;;5103747;28;20393;-74
2022/11/09 09:26:29;;;;;;;8.38;1.73;;;12.50;99.90;;;;;;5114454;28;20390;-74
2022/11/09 09:28:54;;;;;;;12.37;1.97;;;12.60;99.90;;;;;;5128008;28;20402;-74
2022/11/09 09:31:20;;;;;;;9.18;1.75;;;12.50;99.90;;;;;;5128446;27;20426;-74
2022/11/09 09:33:46;;;;;;;7.10;1.57;;;12.60;99.90;;;;;;5094255;28;20404;-74
2022/11/09 09:36:17;;;;;;;8.80;1.60;;;12.70;99.90;;;;;;5126137;27;20414;-74
2022/11/09 09:38:43;;;;;;;12.38;2.10;;;12.70;99.90;;;;;;5125419;27;20394;-74
2022/11/09 09:41:31;;;;;;;9.63;1.55;;;12.70;99.90;;;;;;5126339;27;20445;-74
2022/11/09 09:44:09;;;;;;;8.70;1.70;;;12.80;99.90;;;;;;5123258;27;20410;-74
2022/11/09 09:46:41;;;;;;;10.52;1.65;;;12.80;99.90;;;;;;5086692;28;20416;-74
2022/11/09 09:49:14;;;;;;;8.80;1.80;;;12.80;99.90;;;;;;5117463;27;20414;-74
2022/11/09 09:52:10;;;;;;;9.70;1.83;;;12.90;99.90;;;;;;5132009;27;20832;-74
2022/11/09 09:54:41;;;;;;;9.43;1.65;;;12.90;99.90;;;;;;5123013;27;20410;-74
2022/11/09 09:57:18;;;;;;;13.15;2.00;;;13.00;99.90;;;;;;5116704;27;20394;-75
2022/11/09 09:59:51;;;;;;;8.25;1.77;;;13.10;99.90;;;;;;5128419;27;20426;-74
2022/11/09 10:02:24;;;;;;;12.02;1.90;;;13.10;99.90;;;;;;5118994;27;20402;-74
2022/11/09 10:04:52;;;;;;;11.00;2.10;;;13.20;99.90;;;;;;5129711;27;20410;-74
2022/11/09 10:07:18;;;;;;;7.32;1.90;;;13.30;99.90;;;;;;5097472;27;20403;-74
2022/11/09 10:10:26;;;;;;;10.93;1.83;;;13.50;99.90;;;;;;5132334;27;20471;-75
2022/11/09 10:12:57;;;;;;;9.40;1.67;;;14.40;99.90;;;;;;5132022;27;20415;-74
2022/11/09 10:15:45;;;;;;;9.32;1.65;;;15.60;99.90;;;;;;5115831;27;20929;-75
2022/11/09 10:18:35;;;;;;;8.32;1.90;;;16.30;99.90;;;;;;5129320;27;20907;-74
2022/11/09 10:21:39;;;;;;;10.40;1.95;;;16.80;99.90;;;;;;5099707;28;20444;-75
2022/11/09 10:24:41;;;;;;;8.95;1.65;;;17.00;99.90;;;;;;5038088;28;20423;-74
2022/11/09 10:27:26;;;;;;;9.00;1.48;;;17.60;99.90;;;;;;5019724;28;20423;-74
2022/11/09 10:29:53;;;;;;;9.40;2.30;;;18.20;99.90;;;;;;5124011;27;20490;-74
2022/11/09 10:32:23;;;;;;;8.88;2.00;;;18.50;99.90;;;;;;5110833;27;20758;-74
2022/11/09 10:35:03;;;;;;;8.00;1.60;;;18.50;99.90;;;;;;5120209;27;20810;-74
2022/11/09 10:37:51;;;;;;;8.57;1.70;;;18.00;99.90;;;;;;5128959;27;20403;-74
2022/11/09 10:40:19;;;;;;;8.90;1.77;;;17.40;99.90;;;;;;5131770;27;20927;-74
2022/11/09 10:42:52;;;;;;;9.90;2.15;;;16.90;99.90;;;;;;5107147;28;20833;-74
2022/11/09 10:45:28;;;;;;;9.10;2.00;;;16.40;99.90;;;;;;5115242;27;20400;-75
2022/11/09 10:47:54;;;;;;;7.50;1.80;;;16.50;99.90;;;;;;5127572;27;20486;-74
2022/11/09 10:50:40;;;;;;;8.48;1.95;;;17.10;99.90;;;;;;5117730;27;20516;-75
2022/11/09 10:53:17;;;;;;;6.87;2.00;;;17.90;99.90;;;;;;5120188;27;20487;-74
2022/11/09 10:56:17;;;;;;;7.93;1.90;;;18.80;99.90;;;;;;5109236;27;20929;-75
2022/11/09 10:58:48;;;;;;;9.82;2.00;;;19.40;99.90;;;;;;5106206;28;20522;-75
2022/11/09 11:01:34;;;;;;;9.43;2.20;;;19.40;99.90;;;;;;5121577;27;20907;-75
2022/11/09 11:04:18;;;;;;;7.30;1.98;;;19.70;99.90;;;;;;5111694;28;20735;-75
2022/11/09 11:06:44;;;;;;;7.10;2.05;;;20.00;99.90;;;;;;5108979;27;20413;-75
2022/11/09 11:09:09;;;;;;;9.43;2.10;;;19.90;99.90;;;;;;5109758;28;20420;-75
2022/11/09 11:11:37;;;;;;;11.02;2.22;;;19.80;99.90;;;;;;5114258;27;20410;-75
2022/11/09 11:14:35;;;;;;;8.88;2.05;;;19.10;99.90;;;;;;5097583;27;20473;-74
2022/11/09 11:17:01;;;;;;;7.82;1.85;;;18.40;99.90;;;;;;5096331;27;20411;-74
2022/11/09 11:19:40;;;;;;;8.87;2.00;;;17.90;99.90;;;;;;5130187;27;20468;-74
2022/11/09 11:22:11;;;;;;;7.55;1.65;;;17.40;99.90;;;;;;5130573;27;20414;-74
2022/11/09 11:24:58;;;;;;;9.07;1.60;;;16.90;99.90;;;;;;5108876;28;20411;-74
2022/11/09 11:27:39;;;;;;;8.82;1.90;;;16.80;99.90;;;;;;5107775;27;20555;-75
2022/11/09 11:30:14;;;;;;;8.52;1.98;;;16.80;99.90;;;;;;5126256;27;20464;-74
2022/11/09 11:32:40;;;;;;;7.45;1.88;;;16.50;99.90;;;;;;5108799;27;20415;-74
2022/11/09 11:35:35;;;;;;;10.18;2.10;;;16.30;99.90;;;;;;5112582;27;20400;-74
2022/11/09 11:38:33;;;;;;;9.10;1.83;;;15.90;99.90;;;;;;5095260;27;20415;-74
2022/11/09 11:41:39;;;;;;;8.18;1.77;;;15.70;99.90;;;;;;5124603;27;20393;-74
2022/11/09 11:44:20;;;;;;;8.85;1.80;;;15.40;99.90;;;;;;5009634;28;20417;-74
2022/11/09 11:46:59;;;;;;;9.20;2.17;;;15.30;99.90;;;;;;5092242;28;20420;-74
2022/11/09 11:49:40;;;;;;;10.15;2.15;;;15.20;99.90;;;;;;5118542;27;20761;-74
2022/11/09 11:52:12;;;;;;;8.68;1.80;;;15.20;99.90;;;;;;5098499;27;20457;-74
2022/11/09 11:55:06;;;;;;;7.30;1.93;;;15.00;99.90;;;;;;5124355;27;20403;-74
2022/11/09 11:58:04;;;;;;;9.73;2.05;;;14.90;99.90;;;;;;5094976;28;20964;-74
2022/11/09 12:00:37;;;;;;;10.15;2.33;;;14.80;99.90;;;;;;5097082;27;20444;-74
2022/11/09 12:03:13;;;;;;;8.63;1.98;;;14.80;99.90;;;;;;5128486;27;20402;-74
2022/11/09 12:06:06;;;;;;;7.15;1.80;;;14.60;99.90;;;;;;5117492;27;20493;-75
2022/11/09 12:09:04;;;;;;;11.30;1.98;;;14.70;99.90;;;;;;5130089;27;20410;-75
2022/11/09 12:11:55;;;;;;;9.10;2.00;;;14.70;99.90;;;;;;5116681;27;20839;-75
2022/11/09 12:14:29;;;;;;;7.97;2.33;;;14.80;99.90;;;;;;5123552;27;20407;-75
2022/11/09 12:17:13;;;;;;;6.32;1.80;;;14.90;99.90;;;;;;5130127;27;20459;-75
2022/11/09 12:19:55;;;;;;;9.85;2.58;;;14.90;99.90;;;;;;5129746;27;20406;-75
2022/11/09 12:22:47;;;;;;;9.18;1.92;;;14.80;99.90;;;;;;5129148;27;20416;-75
2022/11/09 12:25:12;;;;;;;9.02;2.08;;;14.80;99.90;;;;;;5057981;28;20411;-75
2022/11/09 12:27:43;;;;;;;12.90;2.20;;;14.90;99.90;;;;;;5124009;27;20407;-75
2022/11/09 12:30:20;;;;;;;11.57;2.30;;;14.90;99.90;;;;;;5107993;27;20437;-75
2022/11/09 12:32:57;;;;;;;9.47;2.23;;;14.80;99.90;;;;;;5129458;27;21241;-75
2022/11/09 12:35:43;;;;;;;13.45;3.00;;;14.70;99.90;;;;;;5111136;27;20407;-75
2022/11/09 12:38:18;;;;;;;8.63;2.15;;;14.60;99.90;;;;;;5099329;27;20474;-75
2022/11/09 12:40:53;;;;;;;8.40;2.08;;;14.50;99.90;;;;;;5112389;27;20446;-75
2022/11/09 12:43:31;;;;;;;11.57;2.10;;;14.50;99.90;;;;;;5110296;27;20421;-75
2022/11/09 12:45:58;;;;;;;9.80;2.13;;;14.50;99.90;;;;;;5129540;27;20406;-75
2022/11/09 12:48:29;;;;;;;9.10;2.20;;;14.50;99.90;;;;;;5129633;27;20391;-75
2022/11/09 12:50:55;;;;;;;9.60;1.98;;;14.50;99.90;;;;;;5128131;27;20537;-75
2022/11/09 12:53:26;;;;;;;9.18;2.35;;;14.50;99.90;;;;;;5090535;28;20400;-75
2022/11/09 12:56:16;;;;;;;8.02;2.08;;;14.60;99.90;;;;;;5114783;27;20423;-75
2022/11/09 12:58:42;;;;;;;9.75;2.05;;;14.60;99.90;;;;;;5103947;27;20444;-75
2022/11/09 13:01:32;;;;;;;8.05;2.17;;;14.70;99.90;;;;;;5128791;27;20470;-75